CheckWX is a tool to help pilots better visualize weather data.  It is not intended as a substitute for an official pre-flight weather briefing.

22:14:43 UTC

KBVI TAF
Beaver County Airport
Beaver Falls, Pennsylvania, USA
KBVI 191726Z 1918/2018 13003KT P6SM BKN250 FM201200 15004KT P6SM BKN100

Oct-19@
18:00 UTC

Oct-19 @ 18:00 UTC

Oct-20@
12:00 UTC

Oct-20 @ 12:00 UTC

KBVI 191726Z 1918/2018 13003KT P6SM BKN250
Wind
  • 130° at 3 KTS
Cloud Levels
  • Broken at 25,000' AGL

Oct-20@
12:00 UTC

Oct-20 @ 12:00 UTC

Oct-20@
18:00 UTC

Oct-20 @ 18:00 UTC

FM201200 15004KT P6SM BKN100

From

From Standard forecast or significant change

Wind
  • 150° at 4 KTS
Cloud Levels
  • Broken at 10,000' AGL